createdAt,value
2023-03-21T00:02:08.183Z,11.20
2023-03-21T00:04:55.101Z,11.10
2023-03-21T00:07:41.927Z,11.20
2023-03-21T00:10:39.485Z,11.10
2023-03-21T00:13:32.443Z,11.20
2023-03-21T00:16:25.811Z,11.20
2023-03-21T00:19:14.522Z,11.20
2023-03-21T00:22:07.857Z,11.10
2023-03-21T00:24:54.418Z,11.10
2023-03-21T00:27:56.813Z,11.10
2023-03-21T00:30:44.540Z,11.00
2023-03-21T00:33:30.018Z,11.00
2023-03-21T00:36:16.008Z,10.90
2023-03-21T00:39:01.563Z,10.80
2023-03-21T00:41:47.901Z,10.70
2023-03-21T00:44:36.756Z,10.70
2023-03-21T00:47:23.064Z,10.60
2023-03-21T00:50:11.859Z,10.70
2023-03-21T00:52:57.163Z,10.70
2023-03-21T00:55:42.460Z,10.70
2023-03-21T00:58:27.767Z,10.70
2023-03-21T01:01:13.084Z,10.70
2023-03-21T01:04:04.570Z,10.70
2023-03-21T01:06:49.908Z,10.70
2023-03-21T01:09:35.285Z,10.70
2023-03-21T01:12:20.785Z,10.70
2023-03-21T01:15:07.154Z,10.70
2023-03-21T01:17:52.421Z,10.70
2023-03-21T01:20:37.834Z,10.60
2023-03-21T01:23:24.053Z,10.60
2023-03-21T01:26:10.869Z,10.60
2023-03-21T01:28:56.150Z,10.60
2023-03-21T01:31:41.400Z,10.50
2023-03-21T01:34:27.568Z,10.50
2023-03-21T01:37:12.808Z,10.40
2023-03-21T01:39:58.170Z,10.30
2023-03-21T01:42:43.547Z,10.30
2023-03-21T01:46:00.389Z,10.30
2023-03-21T01:48:45.910Z,10.20
2023-03-21T01:51:36.255Z,10.20
2023-03-21T01:54:31.674Z,10.10
2023-03-21T01:57:25.879Z,10.00
2023-03-21T02:00:15.347Z,10.10
2023-03-21T02:03:13.815Z,10.10
2023-03-21T02:06:08.366Z,10.00
2023-03-21T02:08:54.194Z,10.00
2023-03-21T02:11:39.776Z,9.90
2023-03-21T02:14:29.385Z,9.90
2023-03-21T02:17:20.905Z,9.90
2023-03-21T02:20:21.917Z,9.90
2023-03-21T02:23:29.130Z,9.80
2023-03-21T02:26:21.260Z,9.80
2023-03-21T02:29:28.224Z,9.80
2023-03-21T02:32:37.517Z,9.80
2023-03-21T02:35:46.994Z,9.80
2023-03-21T02:38:47.406Z,9.90
2023-03-21T02:41:44.555Z,9.90
2023-03-21T02:44:57.344Z,9.80
2023-03-21T02:47:57.560Z,9.80
2023-03-21T02:50:50.974Z,9.70
2023-03-21T02:53:39.968Z,9.70
2023-03-21T02:56:26.100Z,9.70
2023-03-21T02:59:12.616Z,9.70
2023-03-21T03:01:59.768Z,9.70
2023-03-21T03:04:45.821Z,9.80
2023-03-21T03:08:00.780Z,9.70
2023-03-21T03:11:16.767Z,9.70
2023-03-21T03:14:31.527Z,9.70
2023-03-21T03:17:24.237Z,9.80
2023-03-21T03:20:40.100Z,9.80
2023-03-21T03:23:30.077Z,9.80
2023-03-21T03:26:26.505Z,9.80
2023-03-21T03:29:16.634Z,9.90
2023-03-21T03:32:13.189Z,9.70
2023-03-21T03:34:58.993Z,9.80
2023-03-21T03:37:50.901Z,9.90
2023-03-21T03:40:48.798Z,9.80
2023-03-21T03:43:48.765Z,9.80
2023-03-21T03:46:46.582Z,9.80
2023-03-21T03:49:38.278Z,9.80
2023-03-21T03:52:56.161Z,9.80
2023-03-21T03:55:43.493Z,9.80
2023-03-21T03:58:42.938Z,9.70
2023-03-21T04:01:30.100Z,9.70
2023-03-21T04:04:16.961Z,9.60
2023-03-21T04:07:03.649Z,9.60
2023-03-21T04:09:49.181Z,9.50
2023-03-21T04:12:34.607Z,9.50
2023-03-21T04:15:20.468Z,9.40
2023-03-21T04:18:05.567Z,9.30
2023-03-21T04:20:51.471Z,9.30
2023-03-21T04:23:37.692Z,9.20
2023-03-21T04:26:23.237Z,9.30
2023-03-21T04:29:08.781Z,9.20
2023-03-21T04:31:54.118Z,9.20
2023-03-21T04:34:40.539Z,9.20
2023-03-21T04:37:27.881Z,9.20
2023-03-21T04:40:17.650Z,9.20
2023-03-21T04:43:02.908Z,9.10
2023-03-21T04:45:48.369Z,9.20
2023-03-21T04:48:33.656Z,9.20
2023-03-21T04:51:19.170Z,9.10
2023-03-21T04:54:05.853Z,9.20
2023-03-21T04:56:52.112Z,9.20
2023-03-21T04:59:37.353Z,9.30
2023-03-21T05:02:22.805Z,9.30
2023-03-21T05:05:11.285Z,9.30
2023-03-21T05:07:56.680Z,9.30
2023-03-21T05:10:42.355Z,9.30
2023-03-21T05:13:27.418Z,9.30
2023-03-21T05:16:12.983Z,9.30
2023-03-21T05:19:07.356Z,9.30
2023-03-21T05:21:52.433Z,9.30
2023-03-21T05:24:41.767Z,9.40
2023-03-21T05:27:36.435Z,9.30
2023-03-21T05:30:21.615Z,9.40
2023-03-21T05:33:07.102Z,9.30
2023-03-21T05:35:52.441Z,9.40
2023-03-21T05:38:42.716Z,9.40
2023-03-21T05:41:28.345Z,9.40
2023-03-21T05:44:13.524Z,9.40
2023-03-21T05:46:59.004Z,9.40
2023-03-21T05:49:45.002Z,9.40
2023-03-21T05:52:30.465Z,9.40
2023-03-21T05:55:16.089Z,9.40
2023-03-21T05:58:01.168Z,9.40
2023-03-21T06:00:46.869Z,9.40
2023-03-21T06:03:32.386Z,9.50
2023-03-21T06:06:17.748Z,9.50
2023-03-21T06:09:03.455Z,9.50
2023-03-21T06:11:51.598Z,9.40
2023-03-21T06:14:37.038Z,9.30
2023-03-21T06:17:22.573Z,9.40
2023-03-21T06:20:08.774Z,9.40
2023-03-21T06:22:53.934Z,9.50
2023-03-21T06:25:39.592Z,9.50
2023-03-21T06:28:25.343Z,9.50
2023-03-21T06:31:10.972Z,9.50
2023-03-21T06:33:56.840Z,9.50
2023-03-21T06:36:44.624Z,9.50
2023-03-21T06:39:31.276Z,9.40
2023-03-21T06:42:16.493Z,9.40
2023-03-21T06:45:01.989Z,9.40
2023-03-21T06:47:47.403Z,9.50
2023-03-21T06:50:32.788Z,9.60
2023-03-21T06:53:20.582Z,9.60
2023-03-21T06:56:06.265Z,9.60
2023-03-21T06:58:51.561Z,9.70
2023-03-21T07:01:36.695Z,9.70
2023-03-21T07:04:22.049Z,9.70
2023-03-21T07:07:07.457Z,9.80
2023-03-21T07:09:52.799Z,9.90
2023-03-21T07:12:38.303Z,9.80
2023-03-21T07:15:23.573Z,9.80
2023-03-21T07:18:09.941Z,9.80
2023-03-21T07:20:55.396Z,9.90
2023-03-21T07:23:40.723Z,10.00
2023-03-21T07:26:26.075Z,10.00
2023-03-21T07:29:11.383Z,10.20
2023-03-21T07:31:56.855Z,10.20
2023-03-21T07:34:42.101Z,10.20
2023-03-21T07:37:27.880Z,10.20
2023-03-21T07:40:13.359Z,10.20
2023-03-21T07:42:58.634Z,10.30
2023-03-21T07:45:44.517Z,10.20
2023-03-21T07:48:30.229Z,10.30
2023-03-21T07:51:15.291Z,10.30
2023-03-21T07:54:01.201Z,10.40
2023-03-21T07:56:46.603Z,10.30
2023-03-21T07:59:32.004Z,10.20
2023-03-21T08:02:17.978Z,10.30
2023-03-21T08:05:04.136Z,10.40
2023-03-21T08:07:49.924Z,10.40
2023-03-21T08:10:36.077Z,10.60
2023-03-21T08:13:21.190Z,10.70
2023-03-21T08:16:07.769Z,10.80
2023-03-21T08:18:52.963Z,10.90
2023-03-21T08:21:39.308Z,11.10
2023-03-21T08:24:24.355Z,11.20
2023-03-21T08:27:09.833Z,11.20
2023-03-21T08:29:55.836Z,11.40
2023-03-21T08:32:42.219Z,11.30
2023-03-21T08:35:27.794Z,11.40
2023-03-21T08:38:13.397Z,11.40
2023-03-21T08:41:00.432Z,11.50
2023-03-21T08:43:45.623Z,11.50
2023-03-21T08:46:31.472Z,11.50
2023-03-21T08:49:16.653Z,11.60
2023-03-21T08:52:02.397Z,11.50
2023-03-21T08:54:48.518Z,11.60
2023-03-21T08:57:33.993Z,11.60
2023-03-21T09:00:20.771Z,11.70
2023-03-21T09:03:06.329Z,11.60
2023-03-21T09:05:54.242Z,11.60
2023-03-21T09:08:41.808Z,11.50
2023-03-21T09:11:27.107Z,11.50
2023-03-21T09:14:12.585Z,11.60
2023-03-21T09:16:57.881Z,11.80
2023-03-21T09:19:43.590Z,12.00
2023-03-21T09:22:28.884Z,11.90
2023-03-21T09:25:16.183Z,12.00
2023-03-21T09:28:05.172Z,12.20
2023-03-21T09:30:50.405Z,12.20
2023-03-21T09:33:36.062Z,12.30
2023-03-21T09:36:24.816Z,12.50
2023-03-21T09:39:11.766Z,12.60
2023-03-21T09:42:17.565Z,12.60
2023-03-21T09:45:10.835Z,12.60
2023-03-21T09:47:56.838Z,12.80
2023-03-21T09:50:42.287Z,12.80
2023-03-21T09:53:35.429Z,12.80
2023-03-21T09:56:21.248Z,12.70
2023-03-21T09:59:10.521Z,12.90
2023-03-21T10:01:57.496Z,12.90
2023-03-21T10:04:44.805Z,13.00
2023-03-21T10:07:40.038Z,13.30
2023-03-21T10:10:32.304Z,13.70
2023-03-21T10:13:23.203Z,14.10
2023-03-21T10:16:15.995Z,14.30
2023-03-21T10:19:05.170Z,14.20
2023-03-21T10:22:00.608Z,14.40
2023-03-21T10:24:46.776Z,14.60
2023-03-21T10:27:34.384Z,14.80
2023-03-21T10:30:50.976Z,14.80
2023-03-21T10:33:39.686Z,15.00
2023-03-21T10:36:31.378Z,15.30
2023-03-21T10:39:27.362Z,15.30
2023-03-21T10:42:23.889Z,15.90
2023-03-21T10:45:18.749Z,16.00
2023-03-21T10:48:07.837Z,15.80
2023-03-21T10:50:55.171Z,15.70
2023-03-21T10:53:46.088Z,15.90
2023-03-21T10:56:37.027Z,16.20
2023-03-21T10:59:22.868Z,16.00
2023-03-21T11:02:19.003Z,16.10
2023-03-21T11:05:25.060Z,16.00
2023-03-21T11:08:17.833Z,16.30
2023-03-21T11:11:04.321Z,16.80
2023-03-21T11:13:58.792Z,17.00
2023-03-21T11:16:44.263Z,16.90
2023-03-21T11:19:32.655Z,16.90
2023-03-21T11:22:21.195Z,16.80
2023-03-21T11:25:12.095Z,17.00
2023-03-21T11:27:57.412Z,17.00
2023-03-21T11:30:57.595Z,17.30
2023-03-21T11:33:52.632Z,17.40
2023-03-21T11:36:39.164Z,17.80
2023-03-21T11:39:41.019Z,17.70
2023-03-21T11:42:28.567Z,17.80
2023-03-21T11:45:17.888Z,17.90
2023-03-21T11:48:12.742Z,18.00
2023-03-21T11:51:07.156Z,18.10
2023-03-21T11:54:01.087Z,18.20
2023-03-21T11:56:52.590Z,18.00
2023-03-21T11:59:48.551Z,18.10
2023-03-21T12:03:00.293Z,18.20
2023-03-21T12:05:58.987Z,18.20
2023-03-21T12:08:50.393Z,18.10
2023-03-21T12:12:00.425Z,18.40
2023-03-21T12:15:19.829Z,18.40
2023-03-21T12:18:37.109Z,18.00
2023-03-21T12:21:39.936Z,18.20
2023-03-21T12:24:33.150Z,18.40
2023-03-21T12:27:46.543Z,18.80
2023-03-21T12:30:56.301Z,19.00
2023-03-21T12:33:49.910Z,18.90
2023-03-21T12:37:03.269Z,19.20
2023-03-21T12:39:49.876Z,19.10
2023-03-21T12:43:08.497Z,19.20
2023-03-21T12:45:59.800Z,19.30
2023-03-21T12:48:50.113Z,19.40
2023-03-21T12:51:41.282Z,19.10
2023-03-21T12:54:49.678Z,19.10
2023-03-21T12:57:51.084Z,19.20
2023-03-21T13:01:03.589Z,19.60
2023-03-21T13:03:56.030Z,19.80
2023-03-21T13:06:43.321Z,19.80
2023-03-21T13:09:38.251Z,19.50
2023-03-21T13:12:32.642Z,19.30
2023-03-21T13:15:27.447Z,19.20
2023-03-21T13:18:48.977Z,19.00
2023-03-21T13:21:46.959Z,18.90
2023-03-21T13:24:32.275Z,18.80
2023-03-21T13:27:34.738Z,18.80
2023-03-21T13:30:26.116Z,18.60
2023-03-21T13:33:21.548Z,18.20
2023-03-21T13:36:08.646Z,18.40
2023-03-21T13:39:00.534Z,18.70
2023-03-21T13:41:49.699Z,19.10
2023-03-21T13:44:44.006Z,19.30
2023-03-21T13:47:42.375Z,19.20
2023-03-21T13:50:33.338Z,19.00
2023-03-21T13:53:22.020Z,19.10
2023-03-21T13:56:12.230Z,19.00
2023-03-21T13:59:04.057Z,19.20
2023-03-21T14:02:01.309Z,19.10
2023-03-21T14:05:04.037Z,18.80
2023-03-21T14:07:59.338Z,18.60
2023-03-21T14:10:49.037Z,18.70
2023-03-21T14:13:38.084Z,18.90
2023-03-21T14:16:31.381Z,18.70
2023-03-21T14:19:16.610Z,18.60
2023-03-21T14:22:04.146Z,18.50
2023-03-21T14:24:57.279Z,18.40
2023-03-21T14:27:55.488Z,18.30
2023-03-21T14:30:43.104Z,18.30
2023-03-21T14:33:41.463Z,18.50
2023-03-21T14:36:30.225Z,18.70
2023-03-21T14:39:23.270Z,18.60
2023-03-21T14:42:13.591Z,18.40
2023-03-21T14:45:00.443Z,18.40
2023-03-21T14:48:16.486Z,18.40
2023-03-21T14:51:05.666Z,18.50
2023-03-21T14:53:50.744Z,18.60
2023-03-21T14:56:38.497Z,18.80
2023-03-21T14:59:28.264Z,18.50
2023-03-21T15:02:35.704Z,18.50
2023-03-21T15:05:27.121Z,18.50
2023-03-21T15:08:12.016Z,18.30
2023-03-21T15:11:08.141Z,18.40
2023-03-21T15:13:55.650Z,18.30
2023-03-21T15:16:41.609Z,18.10
2023-03-21T15:19:33.781Z,18.00
2023-03-21T15:22:37.403Z,17.80
2023-03-21T15:25:28.051Z,17.60
2023-03-21T15:28:14.368Z,17.60
2023-03-21T15:31:00.526Z,17.50
2023-03-21T15:33:50.896Z,17.50
2023-03-21T15:36:43.686Z,17.40
2023-03-21T15:39:29.901Z,17.60
2023-03-21T15:42:40.232Z,17.30
2023-03-21T15:45:27.828Z,17.10
2023-03-21T15:48:14.320Z,16.90
2023-03-21T15:51:11.409Z,16.90
2023-03-21T15:53:56.918Z,16.90
2023-03-21T15:56:45.949Z,16.80
2023-03-21T15:59:35.686Z,16.80
2023-03-21T16:02:23.912Z,16.80
2023-03-21T16:05:31.528Z,16.90
2023-03-21T16:08:28.009Z,16.70
2023-03-21T16:11:17.453Z,16.60
2023-03-21T16:14:02.582Z,16.60
2023-03-21T16:16:48.639Z,16.50
2023-03-21T16:19:34.320Z,16.40
2023-03-21T16:22:21.347Z,16.50
2023-03-21T16:25:07.083Z,16.50
2023-03-21T16:27:52.411Z,16.50
2023-03-21T16:30:38.564Z,16.50
2023-03-21T16:33:25.456Z,16.50
2023-03-21T16:36:18.534Z,16.50
2023-03-21T16:39:22.447Z,16.40
2023-03-21T16:42:07.597Z,16.40
2023-03-21T16:44:53.014Z,16.40
2023-03-21T16:47:38.654Z,16.40
2023-03-21T16:50:31.534Z,16.40
2023-03-21T16:53:17.448Z,16.30
2023-03-21T16:56:02.933Z,16.30
2023-03-21T16:58:48.441Z,16.40
2023-03-21T17:01:35.944Z,16.40
2023-03-21T17:04:22.504Z,16.30
2023-03-21T17:07:14.202Z,16.30
2023-03-21T17:09:59.775Z,16.20
2023-03-21T17:12:45.208Z,16.20
2023-03-21T17:15:30.703Z,16.30
2023-03-21T17:18:16.324Z,16.30
2023-03-21T17:21:01.803Z,16.20
2023-03-21T17:23:47.902Z,16.10
2023-03-21T17:26:33.509Z,16.10
2023-03-21T17:29:18.977Z,15.90
2023-03-21T17:32:04.471Z,15.80
2023-03-21T17:34:53.013Z,15.80
2023-03-21T17:37:38.681Z,15.60
2023-03-21T17:40:29.889Z,15.60
2023-03-21T17:43:18.660Z,16.00
2023-03-21T17:46:03.821Z,15.50
2023-03-21T17:48:49.914Z,15.60
2023-03-21T17:51:35.150Z,15.50
2023-03-21T17:54:20.877Z,15.50
2023-03-21T17:57:06.333Z,15.60
2023-03-21T17:59:51.754Z,15.70
2023-03-21T18:02:37.346Z,15.70
2023-03-21T18:05:23.492Z,15.70
2023-03-21T18:08:12.355Z,15.70
2023-03-21T18:10:57.988Z,15.70
2023-03-21T18:13:44.736Z,15.70
2023-03-21T18:16:30.525Z,15.60
2023-03-21T18:19:15.924Z,15.50
2023-03-21T18:22:02.065Z,15.60
2023-03-21T18:24:47.950Z,15.60
2023-03-21T18:27:33.526Z,15.60
2023-03-21T18:30:41.249Z,15.60
2023-03-21T18:33:25.006Z,15.60
2023-03-21T18:36:14.027Z,15.50
2023-03-21T18:38:59.357Z,15.50
2023-03-21T18:41:44.838Z,15.40
2023-03-21T18:44:30.430Z,15.30
2023-03-21T18:47:17.616Z,15.30
2023-03-21T18:50:14.010Z,15.30
2023-03-21T18:52:59.782Z,15.20
2023-03-21T18:55:47.643Z,15.20
2023-03-21T18:58:35.345Z,15.20
2023-03-21T19:01:20.766Z,15.20
2023-03-21T19:04:20.821Z,15.20
2023-03-21T19:07:09.373Z,15.20
2023-03-21T19:10:16.046Z,15.10
2023-03-21T19:13:00.907Z,15.10
2023-03-21T19:15:49.399Z,15.10
2023-03-21T19:18:56.565Z,15.00
2023-03-21T19:21:41.184Z,15.00
2023-03-21T19:24:28.971Z,15.00
2023-03-21T19:27:14.725Z,14.90
2023-03-21T19:30:13.428Z,14.90
2023-03-21T19:32:59.408Z,14.80
2023-03-21T19:35:46.574Z,14.80
2023-03-21T19:38:32.440Z,14.80
2023-03-21T19:41:18.698Z,14.80
2023-03-21T19:44:05.286Z,14.80
2023-03-21T19:46:51.403Z,14.70
2023-03-21T19:50:20.880Z,14.70
2023-03-21T19:52:46.136Z,14.70
2023-03-21T19:55:31.459Z,14.60
2023-03-21T19:58:21.308Z,14.60
2023-03-21T20:01:09.185Z,14.50
2023-03-21T20:03:54.855Z,14.50
2023-03-21T20:06:39.951Z,14.60
2023-03-21T20:09:49.457Z,14.60
2023-03-21T20:12:32.634Z,14.60
2023-03-21T20:15:21.497Z,14.50
2023-03-21T20:18:08.668Z,14.40
2023-03-21T20:20:53.983Z,14.40
2023-03-21T20:23:39.375Z,14.40
2023-03-21T20:26:24.967Z,14.40
2023-03-21T20:30:00.187Z,14.40
2023-03-21T20:32:16.248Z,14.40
2023-03-21T20:35:13.758Z,14.40
2023-03-21T20:38:04.098Z,14.40
2023-03-21T20:40:49.386Z,14.30
2023-03-21T20:46:41.705Z,14.30
2023-03-21T20:49:28.453Z,14.30
2023-03-21T20:55:21.468Z,14.20
2023-03-21T20:58:30.185Z,14.20
2023-03-21T21:01:16.651Z,14.20
2023-03-21T21:04:01.858Z,14.20
2023-03-21T21:06:48.289Z,14.20
2023-03-21T21:09:33.439Z,14.10
2023-03-21T21:12:19.380Z,14.10
2023-03-21T21:15:07.843Z,14.10
2023-03-21T21:18:11.785Z,14.10
2023-03-21T21:21:00.110Z,14.00
2023-03-21T21:23:45.308Z,14.00
2023-03-21T21:26:31.192Z,14.10
2023-03-21T21:29:17.305Z,14.10
2023-03-21T21:32:02.601Z,14.10
2023-03-21T21:34:48.521Z,14.10
2023-03-21T21:37:33.809Z,14.10
2023-03-21T21:40:20.677Z,14.00
2023-03-21T21:43:06.242Z,14.00
2023-03-21T21:45:52.403Z,14.00
2023-03-21T21:48:39.306Z,13.90
2023-03-21T21:51:26.243Z,13.90
2023-03-21T21:54:18.302Z,13.90
2023-03-21T21:57:04.087Z,13.80
2023-03-21T21:59:54.146Z,13.80
2023-03-21T22:02:41.435Z,13.80
2023-03-21T22:05:27.621Z,13.80
2023-03-21T22:08:12.814Z,13.80
2023-03-21T22:11:00.609Z,13.80
2023-03-21T22:13:49.060Z,13.80
2023-03-21T22:16:34.077Z,13.80
2023-03-21T22:19:19.464Z,13.70
2023-03-21T22:22:04.760Z,13.70
2023-03-21T22:24:50.327Z,13.60
2023-03-21T22:27:35.566Z,13.70
2023-03-21T22:30:20.909Z,13.70
2023-03-21T22:33:09.787Z,13.70
2023-03-21T22:35:55.170Z,13.60
2023-03-21T22:38:41.857Z,13.70
2023-03-21T22:41:27.126Z,13.60
2023-03-21T22:44:12.879Z,13.60
2023-03-21T22:46:58.013Z,13.60
2023-03-21T22:49:45.332Z,13.60
2023-03-21T22:52:30.514Z,13.50
2023-03-21T22:55:15.972Z,13.50
2023-03-21T22:58:01.376Z,13.50
2023-03-21T23:00:47.276Z,13.50
2023-03-21T23:03:32.823Z,13.50
2023-03-21T23:06:19.565Z,13.50
2023-03-21T23:09:05.386Z,13.40
2023-03-21T23:11:50.800Z,13.40
2023-03-21T23:14:36.174Z,13.40
2023-03-21T23:17:21.482Z,13.40
2023-03-21T23:20:08.561Z,13.30
2023-03-21T23:22:53.865Z,13.30
2023-03-21T23:25:42.030Z,13.20
2023-03-21T23:28:27.498Z,13.20
2023-03-21T23:31:16.618Z,13.20
2023-03-21T23:34:03.265Z,13.10
2023-03-21T23:36:48.612Z,13.10
2023-03-21T23:39:34.321Z,12.90
2023-03-21T23:42:19.719Z,12.80
2023-03-21T23:45:05.694Z,12.90
2023-03-21T23:47:51.071Z,12.80
2023-03-21T23:50:36.242Z,12.80
2023-03-21T23:53:22.270Z,12.80
2023-03-21T23:56:26.934Z,12.80
2023-03-21T23:59:12.355Z,12.80
